createdAt,value
2023-01-11T00:00:55.733Z,102975.38
2023-01-11T00:03:23.244Z,102981.53
2023-01-11T00:05:50.900Z,102986.78
2023-01-11T00:08:19.356Z,102984.19
2023-01-11T00:10:47.223Z,102980.59
2023-01-11T00:13:15.580Z,102981.53
2023-01-11T00:15:43.476Z,102978.91
2023-01-11T00:18:11.176Z,102941.13
2023-01-11T00:20:39.827Z,102976.31
2023-01-11T00:23:07.685Z,102969.28
2023-01-11T00:25:35.621Z,102967.50
2023-01-11T00:28:03.363Z,102979.78
2023-01-11T00:30:31.114Z,102989.47
2023-01-11T00:33:00.883Z,102964.00
2023-01-11T00:35:29.813Z,102958.69
2023-01-11T00:37:57.635Z,102956.94
2023-01-11T00:40:29.426Z,102963.97
2023-01-11T00:43:15.557Z,102963.94
2023-01-11T00:46:01.688Z,102964.84
2023-01-11T00:48:29.580Z,102958.69
2023-01-11T00:50:57.400Z,102952.59
2023-01-11T00:53:25.043Z,102952.53
2023-01-11T00:55:52.852Z,102953.41
2023-01-11T00:58:20.490Z,102962.22
2023-01-11T01:00:48.124Z,102971.03
2023-01-11T01:03:16.041Z,102971.00
2023-01-11T01:05:43.837Z,102981.56
2023-01-11T01:08:13.867Z,102975.41
2023-01-11T01:10:41.439Z,102980.66
2023-01-11T01:13:29.421Z,102976.28
2023-01-11T01:15:59.016Z,102970.13
2023-01-11T01:18:26.705Z,102974.53
2023-01-11T01:20:54.382Z,102966.63
2023-01-11T01:23:22.443Z,102959.59
2023-01-11T01:25:51.114Z,102978.94
2023-01-11T01:28:22.199Z,102965.75
2023-01-11T01:30:51.520Z,102963.13
2023-01-11T01:33:19.462Z,102969.25
2023-01-11T01:35:47.328Z,102969.25
2023-01-11T01:38:15.133Z,102963.06
2023-01-11T01:40:43.763Z,102974.53
2023-01-11T01:43:12.159Z,102978.06
2023-01-11T01:45:41.563Z,102971.88
2023-01-11T01:48:11.075Z,102971.88
2023-01-11T01:50:49.049Z,102977.19
2023-01-11T01:53:22.125Z,102958.69
2023-01-11T01:55:56.227Z,102971.00
2023-01-11T01:58:39.823Z,102972.78
2023-01-11T02:01:25.832Z,102968.38
2023-01-11T02:03:53.381Z,102969.25
2023-01-11T02:06:24.006Z,102989.47
2023-01-11T02:08:58.233Z,102977.16
2023-01-11T02:11:31.635Z,102967.50
2023-01-11T02:14:07.365Z,102967.50
2023-01-11T02:16:35.379Z,102974.53
2023-01-11T02:19:03.293Z,102971.88
2023-01-11T02:21:45.077Z,102964.00
2023-01-11T02:24:29.663Z,102968.41
2023-01-11T02:27:09.362Z,102969.28
2023-01-11T02:29:58.732Z,102976.28
2023-01-11T02:32:48.052Z,102976.28
2023-01-11T02:35:34.047Z,102965.75
2023-01-11T02:38:27.031Z,102964.88
2023-01-11T02:40:59.494Z,102964.88
2023-01-11T02:43:52.287Z,102959.56
2023-01-11T02:46:44.593Z,102956.97
2023-01-11T02:49:34.508Z,102958.72
2023-01-11T02:52:07.459Z,102961.38
2023-01-11T02:54:36.414Z,102946.41
2023-01-11T02:57:03.949Z,102962.22
2023-01-11T02:59:32.720Z,102974.53
2023-01-11T03:02:01.017Z,102963.09
2023-01-11T03:04:36.601Z,102967.50
2023-01-11T03:07:07.347Z,102975.41
2023-01-11T03:10:13.778Z,102991.22
2023-01-11T03:13:18.844Z,102980.66
2023-01-11T03:15:50.934Z,102985.09
2023-01-11T03:18:30.011Z,102982.44
2023-01-11T03:21:06.008Z,102978.94
2023-01-11T03:23:48.330Z,102974.53
2023-01-11T03:26:30.010Z,102974.53
2023-01-11T03:29:06.531Z,102968.38
2023-01-11T03:31:39.181Z,102969.28
2023-01-11T03:34:18.695Z,102967.50
2023-01-11T03:36:57.999Z,102971.03
2023-01-11T03:39:53.104Z,102966.63
2023-01-11T03:42:21.447Z,102979.81
2023-01-11T03:44:53.886Z,102979.81
2023-01-11T03:47:22.994Z,102969.28
2023-01-11T03:49:58.731Z,102963.13
2023-01-11T03:52:29.691Z,102968.38
2023-01-11T03:54:57.228Z,102974.53
2023-01-11T03:57:30.022Z,102963.97
2023-01-11T03:59:57.737Z,102979.81
2023-01-11T04:02:26.352Z,102960.47
2023-01-11T04:04:54.045Z,102980.69
2023-01-11T04:07:21.579Z,102978.94
2023-01-11T04:09:49.217Z,102984.22
2023-01-11T04:12:16.920Z,102973.66
2023-01-11T04:14:44.956Z,102974.56
2023-01-11T04:17:12.513Z,102973.69
2023-01-11T04:19:40.835Z,102971.91
2023-01-11T04:22:11.507Z,102973.66
2023-01-11T04:24:39.106Z,102964.00
2023-01-11T04:27:06.718Z,102954.34
2023-01-11T04:29:34.283Z,102969.28
2023-01-11T04:32:01.777Z,102969.28
2023-01-11T04:34:29.665Z,102965.75
2023-01-11T04:36:57.308Z,102979.81
2023-01-11T04:39:24.886Z,102993.91
2023-01-11T04:42:11.218Z,102989.50
2023-01-11T04:44:41.159Z,102982.47
2023-01-11T04:47:08.895Z,102978.94
2023-01-11T04:49:36.693Z,102970.13
2023-01-11T04:52:05.627Z,102977.19
2023-01-11T04:54:33.952Z,102985.97
2023-01-11T04:57:01.612Z,102975.41
2023-01-11T04:59:29.155Z,102972.78
2023-01-11T05:01:56.670Z,102964.88
2023-01-11T05:04:24.507Z,102967.53
2023-01-11T05:06:54.329Z,102968.41
2023-01-11T05:09:22.368Z,102953.44
2023-01-11T05:11:51.489Z,102962.25
2023-01-11T05:14:19.070Z,102962.25
2023-01-11T05:16:46.661Z,102964.88
2023-01-11T05:19:14.421Z,102964.84
2023-01-11T05:21:42.454Z,102952.56
2023-01-11T05:24:14.755Z,102964.91
2023-01-11T05:26:44.141Z,102965.75
2023-01-11T05:29:13.336Z,102965.75
2023-01-11T09:48:36.861Z,102865.31
2023-01-11T09:51:05.272Z,102870.31
2023-01-11T09:53:38.555Z,102877.66
2023-01-11T09:56:11.019Z,102881.91
2023-01-11T09:58:57.093Z,102860.50
2023-01-11T10:01:45.664Z,102863.16
2023-01-11T10:04:24.120Z,102859.47
2023-01-11T10:07:03.836Z,102862.13
2023-01-11T10:18:32.462Z,102837.22
2023-01-11T10:19:24.585Z,102841.66
2023-01-11T10:21:58.423Z,102836.97
2023-01-11T10:24:30.640Z,102830.41
2023-01-11T10:26:59.137Z,102828.53
2023-01-11T10:29:52.931Z,102834.84
2023-01-11T10:32:53.524Z,102830.06
2023-01-11T10:36:06.182Z,102813.66
2023-01-11T10:38:47.492Z,102811.78
2023-01-11T10:41:43.148Z,102810.84
2023-01-11T10:44:19.548Z,102783.47
2023-01-11T10:46:50.204Z,102792.91
2023-01-11T10:49:45.924Z,102801.56
2023-01-11T10:52:35.308Z,102792.47
2023-01-11T10:55:13.183Z,102792.56
2023-01-11T10:58:01.733Z,102783.44
2023-01-11T11:00:36.413Z,102793.94
2023-01-11T11:03:49.180Z,102779.44
2023-01-11T11:06:34.991Z,102772.09
2023-01-11T11:09:09.569Z,102783.66
2023-01-11T11:12:08.240Z,102785.16
2023-01-11T11:14:47.808Z,102782.75
2023-01-11T11:17:18.623Z,102792.47
2023-01-11T11:19:46.406Z,102788.66
2023-01-11T11:22:14.146Z,102785.03
2023-01-11T11:24:44.644Z,102781.31
2023-01-11T11:27:42.166Z,102795.84
2023-01-11T11:30:11.591Z,102773.53
2023-01-11T11:32:43.678Z,102775.09
2023-01-11T11:36:02.226Z,102772.91
2023-01-11T11:42:43.602Z,102757.63
2023-01-11T11:45:11.163Z,102760.19
2023-01-11T11:47:39.023Z,102756.41
2023-01-11T11:50:45.209Z,102763.81
2023-01-11T11:53:22.506Z,102762.63
2023-01-11T11:55:50.137Z,102762.34
2023-01-11T11:58:19.913Z,102765.03
2023-01-11T12:00:51.414Z,102757.22
2023-01-11T12:03:20.032Z,102755.19
2023-01-11T12:06:03.612Z,102754.47
2023-01-11T12:08:33.021Z,102771.03
2023-01-11T12:11:06.060Z,102773.44
2023-01-11T12:13:38.120Z,102774.41
2023-01-11T12:16:08.545Z,102773.00
2023-01-11T12:18:42.789Z,102771.91
2023-01-11T12:21:26.850Z,102779.31
2023-01-11T12:24:31.084Z,102780.75
2023-01-11T12:27:10.735Z,102776.91
2023-01-11T12:29:46.568Z,102777.47
2023-01-11T12:32:20.321Z,102779.38
2023-01-11T12:35:09.828Z,102759.97
2023-01-11T12:37:40.539Z,102766.72
2023-01-11T12:40:30.758Z,102771.59
2023-01-11T12:43:04.671Z,102777.06
2023-01-11T12:45:45.310Z,102769.72
2023-01-11T12:48:50.193Z,102768.41
2023-01-11T12:51:36.989Z,102756.81
2023-01-11T12:54:11.050Z,102758.91
2023-01-11T12:56:45.193Z,102756.19
2023-01-11T12:59:19.642Z,102778.50
2023-01-11T13:02:07.448Z,102772.97
2023-01-11T13:05:00.257Z,102767.00
2023-01-11T13:07:49.342Z,102769.28
2023-01-11T13:10:26.867Z,102774.41
2023-01-11T13:13:18.868Z,102765.22
2023-01-11T13:15:49.318Z,102775.78
2023-01-11T13:18:34.096Z,102760.28
2023-01-11T13:21:28.901Z,102786.47
2023-01-11T13:23:58.358Z,102781.66
2023-01-11T13:26:32.446Z,102761.41
2023-01-11T13:29:04.010Z,102782.78
2023-01-11T13:31:33.756Z,102771.75
2023-01-11T13:34:14.589Z,102775.31
2023-01-11T13:36:49.308Z,102770.94
2023-01-11T13:39:24.174Z,102784.84
2023-01-11T13:41:54.097Z,102776.47
2023-01-11T13:44:23.030Z,102784.50
2023-01-11T13:46:54.111Z,102782.72
2023-01-11T13:49:43.551Z,102768.22
2023-01-11T13:52:32.724Z,102766.44
2023-01-11T13:55:02.155Z,102775.88
2023-01-11T13:57:56.112Z,102781.94
2023-01-11T14:00:44.495Z,102782.31
2023-01-11T14:03:21.181Z,102786.13
2023-01-11T14:06:00.134Z,102783.53
2023-01-11T14:08:49.400Z,102787.03
2023-01-11T14:11:38.680Z,102787.16
2023-01-11T14:14:37.357Z,102779.19
2023-01-11T14:17:08.327Z,102784.81
2023-01-11T14:20:00.496Z,102775.81
2023-01-11T14:22:36.971Z,102775.28
2023-01-11T14:25:18.371Z,102777.94
2023-01-11T14:27:48.772Z,102763.88
2023-01-11T14:30:22.466Z,102776.56
2023-01-11T14:33:31.853Z,102773.88
2023-01-11T14:36:11.964Z,102778.28
2023-01-11T14:38:45.788Z,102779.59
2023-01-11T14:41:40.986Z,102784.00
2023-01-11T14:44:11.629Z,102785.13
2023-01-11T14:46:42.172Z,102775.41
2023-01-11T14:49:37.977Z,102782.66
2023-01-11T14:52:14.050Z,102781.94
2023-01-11T14:54:44.980Z,102796.25
2023-01-11T14:57:31.393Z,102796.22
2023-01-11T14:59:59.288Z,102786.69
2023-01-11T15:02:28.631Z,102801.75
2023-01-11T15:04:56.539Z,102803.88
2023-01-11T15:07:29.759Z,102803.66
2023-01-11T15:09:58.536Z,102807.34
2023-01-11T15:12:45.936Z,102815.56
2023-01-11T15:15:13.648Z,102805.00
2023-01-11T15:17:59.763Z,102805.22
2023-01-11T15:20:27.386Z,102807.03
2023-01-11T15:22:56.938Z,102805.28
2023-01-11T15:25:26.365Z,102806.97
2023-01-11T15:27:54.242Z,102810.63
2023-01-11T15:30:31.082Z,102808.97
2023-01-11T15:33:17.213Z,102798.34
2023-01-11T15:35:56.987Z,102790.75
2023-01-11T15:38:38.116Z,102805.06
2023-01-11T15:41:24.402Z,102795.28
2023-01-11T15:44:24.772Z,102804.28
2023-01-11T15:47:15.551Z,102794.81
2023-01-11T15:50:17.933Z,102804.28
2023-01-11T15:53:07.467Z,102814.03
2023-01-11T15:55:54.499Z,102808.69
2023-01-11T15:58:57.464Z,102807.78
2023-01-11T16:01:26.700Z,102809.56
2023-01-11T16:04:22.067Z,102818.38
2023-01-11T16:06:54.433Z,102818.41
2023-01-11T16:09:52.502Z,102814.78
2023-01-11T16:12:57.568Z,102812.75
2023-01-11T16:15:41.788Z,102817.31
2023-01-11T16:18:13.649Z,102813.84
2023-01-11T16:20:43.232Z,102812.06
2023-01-11T16:23:18.053Z,102805.75
2023-01-11T16:25:46.800Z,102818.19
2023-01-11T16:28:16.649Z,102820.88
2023-01-11T16:30:46.652Z,102811.06
2023-01-11T16:33:26.662Z,102823.50
2023-01-11T16:36:10.067Z,102812.06
2023-01-11T16:38:44.610Z,102817.16
2023-01-11T16:41:14.220Z,102827.88
2023-01-11T16:43:59.768Z,102829.66
2023-01-11T16:46:47.416Z,102819.03
2023-01-11T16:49:18.459Z,102814.56
2023-01-11T16:51:46.826Z,102826.91
2023-01-11T16:54:29.030Z,102822.41
2023-01-11T16:56:56.803Z,102830.34
2023-01-11T16:59:29.354Z,102827.00
2023-01-11T17:01:59.324Z,102816.31
2023-01-11T17:04:33.987Z,102840.88
2023-01-11T17:07:21.117Z,102841.13
2023-01-11T17:09:52.250Z,102831.19
2023-01-11T17:12:24.084Z,102826.75
2023-01-11T17:15:31.633Z,102823.97
2023-01-11T17:18:03.346Z,102823.88
2023-01-11T17:20:31.836Z,102815.00
2023-01-11T17:22:59.390Z,102824.75
2023-01-11T17:25:41.083Z,102804.31
2023-01-11T17:28:17.814Z,102798.91
2023-01-11T17:30:46.122Z,102794.47
2023-01-11T17:33:30.353Z,102794.53
2023-01-11T17:35:58.084Z,102803.25
2023-01-11T17:38:26.332Z,102792.53
2023-01-11T17:40:56.767Z,102796.97
2023-01-11T17:43:46.485Z,102784.47
2023-01-11T17:46:23.347Z,102797.84
2023-01-11T17:48:56.023Z,102796.06
2023-01-11T17:51:31.675Z,102787.19
2023-01-11T17:53:59.546Z,102785.31
2023-01-11T17:56:33.071Z,102793.13
2023-01-11T17:59:25.824Z,102792.19
2023-01-11T18:01:57.958Z,102790.34
2023-01-11T18:04:26.556Z,102793.91
2023-01-11T18:06:55.635Z,102795.38
2023-01-11T18:09:34.399Z,102792.72
2023-01-11T18:12:05.211Z,102786.44
2023-01-11T18:14:38.566Z,102783.97
2023-01-11T18:17:27.177Z,102782.66
2023-01-11T18:19:55.186Z,102770.41
2023-01-11T18:22:28.019Z,102766.09
2023-01-11T18:24:56.899Z,102772.84
2023-01-11T18:27:28.559Z,102765.56
2023-01-11T18:29:57.605Z,102764.78
2023-01-11T18:32:25.344Z,102760.22
2023-01-11T18:34:54.139Z,102761.22
2023-01-11T18:37:21.980Z,102748.50
2023-01-11T18:39:50.850Z,102749.25
2023-01-11T18:42:20.483Z,102743.94
2023-01-11T18:44:49.554Z,102745.00
2023-01-11T18:47:25.345Z,102736.63
2023-01-11T18:49:53.539Z,102743.53
2023-01-11T18:52:24.741Z,102744.44
2023-01-11T18:54:52.446Z,102737.44
2023-01-11T18:57:20.568Z,102739.28
2023-01-11T18:59:48.472Z,102731.94
2023-01-11T19:02:25.142Z,102727.47
2023-01-11T19:04:54.405Z,102730.91
2023-01-11T19:07:23.185Z,102720.31
2023-01-11T19:09:51.430Z,102717.66
2023-01-11T19:12:19.906Z,102717.56
2023-01-11T19:14:47.685Z,102717.66
2023-01-11T19:17:15.531Z,102714.84
2023-01-11T19:19:43.501Z,102712.91
2023-01-11T19:22:11.722Z,102713.09
2023-01-11T19:24:39.963Z,102702.50
2023-01-11T19:27:07.667Z,102701.41
2023-01-11T19:29:36.431Z,102697.78
2023-01-11T19:32:04.152Z,102710.41
2023-01-11T19:34:35.408Z,102702.13
2023-01-11T19:37:03.091Z,102700.22
2023-01-11T19:39:33.779Z,102702.16
2023-01-11T19:42:03.119Z,102703.69
2023-01-11T19:44:31.702Z,102702.75
2023-01-11T19:47:14.944Z,102706.50
2023-01-11T19:49:42.727Z,102704.59
2023-01-11T19:52:14.233Z,102699.25
2023-01-11T19:54:42.553Z,102698.03
2023-01-11T19:57:11.621Z,102681.25
2023-01-11T19:59:39.309Z,102675.13
2023-01-11T20:02:07.297Z,102670.34
2023-01-11T20:04:35.843Z,102676.47
2023-01-11T20:07:03.895Z,102673.81
2023-01-11T20:09:37.525Z,102672.16
2023-01-11T20:12:06.463Z,102671.13
2023-01-11T20:14:34.346Z,102663.25
2023-01-11T20:17:02.406Z,102665.81
2023-01-11T20:19:30.172Z,102662.41
2023-01-11T20:21:57.872Z,102670.56
2023-01-11T20:24:31.221Z,102675.09
2023-01-11T20:27:00.187Z,102679.78
2023-01-11T20:29:27.923Z,102672.53
2023-01-11T20:31:58.213Z,102679.44
2023-01-11T20:34:31.513Z,102665.44
2023-01-11T20:36:59.108Z,102665.44
2023-01-11T20:39:29.467Z,102660.78
2023-01-11T20:41:57.437Z,102668.78
2023-01-11T20:44:28.138Z,102660.03
2023-01-11T20:46:56.362Z,102657.38
2023-01-11T20:49:25.694Z,102660.03
2023-01-11T20:51:53.415Z,102657.50
2023-01-11T20:54:21.214Z,102655.44
2023-01-11T20:56:49.347Z,102647.81
2023-01-11T20:59:19.768Z,102635.03
2023-01-11T21:01:48.729Z,102628.66
2023-01-11T21:04:16.932Z,102632.06
2023-01-11T21:06:45.965Z,102637.47
2023-01-11T21:09:15.073Z,102638.41
2023-01-11T21:11:42.910Z,102639.91
2023-01-11T21:14:12.297Z,102635.75
2023-01-11T21:16:41.187Z,102637.47
2023-01-11T21:19:11.872Z,102647.16
2023-01-11T21:21:39.458Z,102640.94
2023-01-11T21:24:07.761Z,102643.84
2023-01-11T21:26:35.988Z,102642.94
2023-01-11T21:29:04.543Z,102645.44
2023-01-11T21:31:34.375Z,102637.75
2023-01-11T21:34:05.964Z,102637.53
2023-01-11T21:36:34.545Z,102643.81
2023-01-11T21:39:02.840Z,102640.84
2023-01-11T21:41:51.823Z,102630.44
2023-01-11T21:44:20.405Z,102645.66
2023-01-11T21:46:48.198Z,102640.97
2023-01-11T21:49:17.941Z,102637.44
2023-01-11T21:51:45.823Z,102625.13
2023-01-11T21:54:14.526Z,102621.41
2023-01-11T21:56:43.483Z,102633.16
2023-01-11T21:59:11.155Z,102636.16
2023-01-11T22:01:39.453Z,102629.91
2023-01-11T22:04:11.853Z,102619.19
2023-01-11T22:20:40.901Z,102624.00
2023-01-11T22:23:08.579Z,102621.59
2023-01-11T22:25:36.653Z,102629.59
2023-01-11T22:28:04.556Z,102627.13
2023-01-11T22:31:03.985Z,102626.03
2023-01-11T22:33:31.918Z,102626.53
2023-01-11T22:35:59.462Z,102614.03
2023-01-11T22:38:27.291Z,102618.00
2023-01-11T22:40:54.815Z,102619.56
2023-01-11T22:43:22.496Z,102611.38
2023-01-11T22:46:12.945Z,102607.13
2023-01-11T22:48:40.699Z,102617.72
2023-01-11T22:51:08.941Z,102618.31
2023-01-11T22:53:41.269Z,102613.50
2023-01-11T22:56:09.223Z,102617.59
2023-01-11T22:58:37.035Z,102628.50
2023-01-11T23:02:00.963Z,102621.00
2023-01-11T23:05:14.789Z,102630.22
2023-01-11T23:07:43.828Z,102624.47
2023-01-11T23:10:11.538Z,102618.81
2023-01-11T23:12:58.079Z,102634.78
2023-01-11T23:15:26.062Z,102634.13
2023-01-11T23:17:53.711Z,102611.81
2023-01-11T23:20:33.484Z,102625.13
2023-01-11T23:23:01.129Z,102618.00
2023-01-11T23:25:28.783Z,102614.91
2023-01-11T23:27:56.684Z,102617.56
2023-01-11T23:30:24.626Z,102612.81
2023-01-11T23:32:52.349Z,102606.75
2023-01-11T23:35:20.048Z,102609.22
2023-01-11T23:37:48.599Z,102602.34
2023-01-11T23:40:16.323Z,102608.31
2023-01-11T23:42:44.274Z,102598.63
2023-01-11T23:45:11.961Z,102591.59
2023-01-11T23:47:39.697Z,102601.16
2023-01-11T23:50:09.779Z,102610.25
2023-01-11T23:52:37.653Z,102603.88
2023-01-11T23:55:05.741Z,102607.34
2023-01-11T23:57:35.943Z,102596.94
